createdAt,value
2019-06-10T00:01:44.038Z,97102.00
2019-06-10T00:04:13.681Z,97098.00
2019-06-10T00:06:43.439Z,97103.00
2019-06-10T00:09:13.444Z,97117.00
2019-06-10T00:11:43.564Z,97111.00
2019-06-10T00:14:13.681Z,97111.00
2019-06-10T00:16:43.684Z,97105.00
2019-06-10T00:19:13.333Z,97100.00
2019-06-10T00:21:43.088Z,97111.00
2019-06-10T00:24:13.215Z,97116.00
2019-06-10T00:26:43.331Z,97105.00
2019-06-10T00:29:13.446Z,97105.00
2019-06-10T00:31:43.089Z,97097.00
2019-06-10T00:34:13.089Z,97096.00
2019-06-10T00:36:42.976Z,97087.00
2019-06-10T00:39:13.690Z,97087.00
2019-06-10T00:41:43.811Z,97090.00
2019-06-10T00:44:13.812Z,97085.00
2019-06-10T00:46:44.051Z,97083.00
2019-06-10T00:49:14.748Z,97083.00
2019-06-10T00:51:44.675Z,97084.00
2019-06-10T00:54:15.726Z,97082.00
2019-06-10T00:56:45.618Z,97066.00
2019-06-10T00:59:15.561Z,97046.00
2019-06-10T01:01:45.627Z,97057.00
2019-06-10T01:04:16.333Z,97062.00
2019-06-10T01:06:46.223Z,97042.00
2019-06-10T01:09:15.861Z,97045.00
2019-06-10T01:11:45.744Z,97044.00
2019-06-10T01:14:15.664Z,97046.00
2019-06-10T01:16:45.263Z,97047.00
2019-06-10T01:19:15.919Z,97036.00
2019-06-10T01:21:45.865Z,97037.00
2019-06-10T01:24:17.415Z,97026.00
2019-06-10T01:26:47.306Z,97016.00
2019-06-10T01:29:18.034Z,97019.00
2019-06-10T01:31:48.153Z,97027.00
2019-06-10T01:34:18.368Z,97027.00
2019-06-10T01:36:50.788Z,97019.00
2019-06-10T01:39:22.459Z,97024.00
2019-06-10T01:41:51.755Z,97026.00
2019-06-10T01:44:22.158Z,97015.00
2019-06-10T01:46:52.472Z,97011.00
2019-06-10T01:49:22.231Z,97003.00
2019-06-10T01:51:52.369Z,97000.00
2019-06-10T01:54:22.084Z,96991.00
2019-06-10T01:56:52.233Z,97006.00
2019-06-10T01:59:23.810Z,96998.00
2019-06-10T02:02:01.139Z,97000.00
2019-06-10T02:04:32.233Z,96984.00
2019-06-10T02:07:01.857Z,96998.00
2019-06-10T02:09:31.960Z,96991.00
2019-06-10T02:12:02.351Z,97003.00
2019-06-10T02:14:32.935Z,97003.00
2019-06-10T02:17:03.159Z,96997.00
2019-06-10T02:19:33.280Z,97003.00
2019-06-10T02:22:02.922Z,97001.00
2019-06-10T02:24:32.563Z,97000.00
2019-06-10T02:27:02.564Z,96997.00
2019-06-10T02:29:32.684Z,96998.00
2019-06-10T02:32:04.831Z,96993.00
2019-06-10T02:34:39.233Z,96978.00
2019-06-10T02:37:05.326Z,96977.00
2019-06-10T02:39:38.991Z,96971.00
2019-06-10T02:42:08.695Z,96978.00
2019-06-10T02:47:21.339Z,96972.00
2019-06-10T02:50:00.410Z,96974.00
2019-06-10T02:52:29.303Z,96974.00
2019-06-10T02:54:53.586Z,96972.00
2019-06-10T02:57:44.966Z,96982.00
2019-06-10T03:00:22.623Z,96976.00
2019-06-10T03:02:47.097Z,96967.00
2019-06-10T03:05:19.596Z,96967.00
2019-06-10T03:07:49.378Z,96960.00
2019-06-10T03:10:21.289Z,96953.00
2019-06-10T03:12:52.671Z,96950.00
2019-06-10T03:15:26.425Z,96945.00
2019-06-10T03:17:54.304Z,96940.00
2019-06-10T03:20:25.907Z,96947.00
2019-06-10T03:22:55.979Z,96948.00
2019-06-10T03:25:27.642Z,96950.00
2019-06-10T03:27:57.422Z,96936.00
2019-06-10T03:30:41.262Z,96949.00
2019-06-10T03:32:59.347Z,96945.00
2019-06-10T03:35:29.464Z,96940.00
2019-06-10T03:37:59.584Z,96940.00
2019-06-10T03:40:29.225Z,96932.00
2019-06-10T03:42:59.479Z,96931.00
2019-06-10T03:45:29.590Z,96925.00
2019-06-10T03:47:59.829Z,96916.00
2019-06-10T03:50:32.367Z,96914.00
2019-06-10T03:53:04.282Z,96921.00
2019-06-10T03:55:33.273Z,96923.00
2019-06-10T03:58:02.953Z,96927.00
2019-06-10T04:00:32.940Z,96930.00
2019-06-10T04:03:03.797Z,96936.00
2019-06-10T04:05:33.678Z,96941.00
2019-06-10T04:08:03.798Z,96950.00
2019-06-10T04:10:34.035Z,96952.00
2019-06-10T04:13:04.037Z,96965.00
2019-06-10T04:15:34.399Z,96955.00
2019-06-10T04:18:04.285Z,96959.00
2019-06-10T04:20:34.182Z,96965.00
2019-06-10T04:23:04.276Z,96968.00
2019-06-10T04:25:34.160Z,96966.00
2019-06-10T04:28:04.280Z,96968.00
2019-06-10T04:30:33.920Z,96971.00
2019-06-10T04:33:03.921Z,96974.00
2019-06-10T04:35:33.929Z,96975.00
2019-06-10T04:38:04.043Z,96981.00
2019-06-10T04:40:33.690Z,96984.00
2019-06-10T04:43:03.449Z,96984.00
2019-06-10T04:45:33.715Z,96981.00
2019-06-10T04:48:03.805Z,97003.00
2019-06-10T04:50:42.147Z,97017.00
2019-06-10T04:53:05.005Z,97037.00
2019-06-10T04:55:34.649Z,97030.00
2019-06-10T04:58:04.765Z,97019.00
2019-06-10T05:00:34.410Z,97026.00
2019-06-10T05:03:04.048Z,97025.00
2019-06-10T05:05:34.052Z,97022.00
2019-06-10T05:08:04.291Z,97027.00
2019-06-10T05:10:34.536Z,97027.00
2019-06-10T05:13:04.532Z,97011.00
2019-06-10T05:15:34.889Z,96997.00
2019-06-10T05:18:05.257Z,96996.00
2019-06-10T05:20:51.076Z,96992.00
2019-06-10T05:23:06.939Z,96992.00
2019-06-10T05:25:36.817Z,96996.00
2019-06-10T05:28:06.704Z,97000.00
2019-06-10T05:30:36.828Z,96983.00
2019-06-10T05:33:06.944Z,96975.00
2019-06-10T05:35:36.577Z,96980.00
2019-06-10T05:38:06.465Z,96974.00
2019-06-10T05:40:36.102Z,96970.00
2019-06-10T05:43:06.109Z,96960.00
2019-06-10T05:45:36.227Z,96949.00
2019-06-10T05:48:05.985Z,96928.00
2019-06-10T05:50:35.864Z,96926.00
2019-06-10T05:53:05.864Z,96922.00
2019-06-10T05:55:35.987Z,96914.00
2019-06-10T05:58:06.226Z,96907.00
2019-06-10T06:00:35.872Z,96904.00
2019-06-10T06:03:06.234Z,96900.00
2019-06-10T06:05:37.952Z,96897.00
2019-06-10T06:08:08.813Z,96909.00
2019-06-10T06:10:38.871Z,96903.00
2019-06-10T06:13:09.113Z,96895.00
2019-06-10T06:15:39.007Z,96902.00
2019-06-10T06:18:10.671Z,96896.00
2019-06-10T06:20:43.487Z,96883.00
2019-06-10T06:23:12.610Z,96884.00
2019-06-10T06:25:46.277Z,96871.00
2019-06-10T06:28:16.194Z,96868.00
2019-06-10T06:30:45.729Z,96865.00
2019-06-10T06:33:15.722Z,96866.00
2019-06-10T06:35:46.705Z,96865.00
2019-06-10T06:38:16.560Z,96860.00
2019-06-10T06:40:46.802Z,96869.00
2019-06-10T06:43:16.562Z,96880.00
2019-06-10T06:45:46.202Z,96879.00
2019-06-10T06:48:15.962Z,96879.00
2019-06-10T06:51:00.370Z,96873.00
2019-06-10T06:53:28.581Z,96873.00
2019-06-10T06:55:52.808Z,96880.00
2019-06-10T06:58:23.197Z,96886.00
2019-06-10T07:01:04.446Z,96884.00
2019-06-10T07:03:24.852Z,96891.00
2019-06-10T07:05:55.456Z,96874.00
2019-06-10T07:08:27.369Z,96874.00
2019-06-10T07:11:02.833Z,96886.00
2019-06-10T07:13:37.086Z,96882.00
2019-06-10T07:16:04.937Z,96875.00
2019-06-10T07:18:40.838Z,96898.00
2019-06-10T07:21:06.489Z,96891.00
2019-06-10T07:23:39.482Z,96886.00
2019-06-10T07:26:08.297Z,96883.00
2019-06-10T07:28:40.333Z,96874.00
2019-06-10T07:31:20.980Z,96852.00
2019-06-10T07:33:45.833Z,96852.00
2019-06-10T07:36:13.417Z,96855.00
2019-06-10T07:38:48.266Z,96917.00
2019-06-10T07:41:15.254Z,96943.00
2019-06-10T07:43:49.516Z,96966.00
2019-06-10T07:46:16.460Z,96985.00
2019-06-10T07:48:48.194Z,97009.00
2019-06-10T07:51:18.025Z,97002.00
2019-06-10T07:53:47.661Z,96992.00
2019-06-10T07:56:17.787Z,97017.00
2019-06-10T07:58:48.172Z,97028.00
2019-06-10T08:01:18.381Z,97032.00
2019-06-10T08:03:48.029Z,97047.00
2019-06-10T08:06:17.908Z,97043.00
2019-06-10T08:08:47.679Z,97056.00
2019-06-10T08:11:18.962Z,97060.00
2019-06-10T08:13:48.991Z,97066.00
2019-06-10T08:16:19.241Z,97066.00
2019-06-10T08:19:18.082Z,97055.00
2019-06-10T08:21:22.853Z,97050.00
2019-06-10T08:23:54.512Z,97045.00
2019-06-10T08:26:24.275Z,97044.00
2019-06-10T08:28:54.033Z,97040.00
2019-06-10T08:31:24.279Z,97030.00
2019-06-10T08:33:54.043Z,97033.00
2019-06-10T08:36:25.001Z,97024.00
2019-06-10T08:38:55.218Z,97025.00
2019-06-10T08:41:25.250Z,97020.00
2019-06-10T08:43:54.880Z,97022.00
2019-06-10T08:46:24.882Z,97010.00
2019-06-10T08:48:55.001Z,97004.00
2019-06-10T08:51:24.639Z,96987.00
2019-06-10T08:53:54.893Z,96986.00
2019-06-10T08:56:24.880Z,96955.00
2019-06-10T08:58:55.001Z,96953.00
2019-06-10T09:01:25.126Z,96954.00
2019-06-10T09:03:54.762Z,96932.00
2019-06-10T09:06:24.884Z,96901.00
2019-06-10T09:08:55.124Z,96910.00
2019-06-10T09:11:25.613Z,96904.00
2019-06-10T09:13:55.368Z,96903.00
2019-06-10T09:16:25.493Z,96910.00
2019-06-10T09:18:55.610Z,96902.00
2019-06-10T09:21:25.391Z,96908.00
2019-06-10T09:23:59.820Z,96907.00
2019-06-10T09:26:27.047Z,96911.00
2019-06-10T09:28:56.940Z,96904.00
2019-06-10T09:31:27.021Z,96891.00
2019-06-10T09:33:57.279Z,96896.00
2019-06-10T09:36:27.171Z,96902.00
2019-06-10T09:38:57.678Z,96896.00
2019-06-10T09:41:39.393Z,96900.00
2019-06-10T09:43:59.216Z,96888.00
2019-06-10T09:46:33.142Z,96890.00
2019-06-10T09:49:04.622Z,96897.00
2019-06-10T09:51:34.988Z,96881.00
2019-06-10T09:54:06.748Z,96879.00
2019-06-10T09:56:36.656Z,96892.00
2019-06-10T09:59:06.420Z,96901.00
2019-06-10T10:01:36.423Z,96899.00
2019-06-10T10:04:06.545Z,96904.00
2019-06-10T10:06:37.498Z,96908.00
2019-06-10T10:09:08.701Z,96911.00
2019-06-10T10:11:38.601Z,96913.00
2019-06-10T10:14:10.579Z,96919.00
2019-06-10T10:16:42.038Z,96897.00
2019-06-10T10:19:13.047Z,96905.00
2019-06-10T10:21:46.870Z,96893.00
2019-06-10T10:24:15.318Z,96881.00
2019-06-10T10:26:48.622Z,96875.00
2019-06-10T10:29:18.928Z,96879.00
2019-06-10T10:31:52.257Z,96864.00
2019-06-10T10:34:23.577Z,96864.00
2019-06-10T10:36:57.144Z,96858.00
2019-06-10T10:39:25.403Z,96863.00
2019-06-10T10:41:57.205Z,96852.00
2019-06-10T10:44:26.592Z,96850.00
2019-06-10T10:46:57.582Z,96844.00
2019-06-10T10:49:27.678Z,96843.00
2019-06-10T10:51:57.435Z,96852.00
2019-06-10T10:54:33.929Z,96853.00
2019-06-10T10:56:59.600Z,96847.00
2019-06-10T10:59:29.354Z,96848.00
2019-06-10T11:01:59.015Z,96841.00
2019-06-10T11:04:29.120Z,96834.00
2019-06-10T11:07:01.151Z,96838.00
2019-06-10T11:09:33.022Z,96833.00
2019-06-10T11:12:03.683Z,96836.00
2019-06-10T11:14:34.240Z,96836.00
2019-06-10T11:17:04.402Z,96831.00
2019-06-10T11:19:34.280Z,96844.00
2019-06-10T11:22:05.321Z,96821.00
2019-06-10T11:24:40.777Z,96835.00
2019-06-10T11:27:07.978Z,96830.00
2019-06-10T11:29:38.262Z,96814.00
2019-06-10T11:32:08.246Z,96809.00
2019-06-10T11:34:37.888Z,96811.00
2019-06-10T11:37:08.221Z,96807.00
2019-06-10T11:39:38.826Z,96791.00
2019-06-10T11:42:08.968Z,96787.00
2019-06-10T11:44:38.970Z,96792.00
2019-06-10T11:47:09.086Z,96777.00
2019-06-10T11:49:39.089Z,96776.00
2019-06-10T11:52:08.731Z,96785.00
2019-06-10T11:54:53.699Z,96794.00
2019-06-10T11:57:12.547Z,96792.00
2019-06-10T11:59:43.426Z,96784.00
2019-06-10T12:02:14.281Z,96791.00
2019-06-10T12:04:44.018Z,96777.00
2019-06-10T12:07:13.895Z,96773.00
2019-06-10T12:09:43.683Z,96775.00
2019-06-10T12:12:13.809Z,96779.00
2019-06-10T12:14:43.535Z,96778.00
2019-06-10T12:17:40.116Z,96763.00
2019-06-10T12:19:45.218Z,96761.00
2019-06-10T12:22:15.100Z,96748.00
2019-06-10T12:24:45.239Z,96753.00
2019-06-10T12:27:16.785Z,96754.00
2019-06-10T12:29:47.010Z,96757.00
2019-06-10T12:32:17.025Z,96750.00
2019-06-10T12:34:46.783Z,96741.00
2019-06-10T12:37:16.426Z,96741.00
2019-06-10T12:39:46.427Z,96735.00
2019-06-10T12:42:16.544Z,96732.00
2019-06-10T12:44:46.667Z,96728.00
2019-06-10T12:47:16.971Z,96722.00
2019-06-10T12:49:47.042Z,96711.00
2019-06-10T12:52:17.269Z,96706.00
2019-06-10T12:54:47.028Z,96703.00
2019-06-10T12:57:16.918Z,96693.00
2019-06-10T12:59:46.917Z,96702.00
2019-06-10T13:02:23.337Z,96698.00
2019-06-10T13:04:49.435Z,96690.00
2019-06-10T13:07:19.311Z,96684.00
2019-06-10T13:09:49.072Z,96679.00
2019-06-10T13:12:18.722Z,96673.00
2019-06-10T13:14:48.358Z,96665.00
2019-06-10T13:17:18.239Z,96661.00
2019-06-10T13:19:48.353Z,96665.00
2019-06-10T13:22:17.994Z,96653.00
2019-06-10T13:24:48.117Z,96643.00
2019-06-10T13:27:17.755Z,96637.00
2019-06-10T13:29:47.757Z,96623.00
2019-06-10T13:32:17.760Z,96626.00
2019-06-10T13:34:47.520Z,96624.00
2019-06-10T13:37:17.400Z,96617.00
2019-06-10T13:39:47.402Z,96625.00
2019-06-10T13:42:17.644Z,96611.00
2019-06-10T13:44:47.898Z,96616.00
2019-06-10T13:47:17.972Z,96605.00
2019-06-10T13:49:47.648Z,96602.00
2019-06-10T13:52:18.479Z,96604.00
2019-06-10T13:54:48.606Z,96591.00
2019-06-10T13:57:18.604Z,96586.00
2019-06-10T13:59:48.615Z,96582.00
2019-06-10T14:02:18.729Z,96572.00
2019-06-10T14:04:48.606Z,96566.00
2019-06-10T14:07:18.608Z,96566.00
2019-06-10T14:09:48.731Z,96554.00
2019-06-10T14:12:18.973Z,96547.00
2019-06-10T14:14:49.099Z,96553.00
2019-06-10T14:17:19.568Z,96552.00
2019-06-10T14:19:49.459Z,96542.00
2019-06-10T14:22:19.457Z,96540.00
2019-06-10T14:24:49.607Z,96535.00
2019-06-10T14:27:21.573Z,96517.00
2019-06-10T14:29:52.880Z,96514.00
2019-06-10T14:32:22.815Z,96498.00
2019-06-10T14:34:52.748Z,96493.00
2019-06-10T14:37:35.117Z,96475.00
2019-06-10T14:39:54.022Z,96454.00
2019-06-10T14:42:23.789Z,96442.00
2019-06-10T14:44:53.902Z,96409.00
2019-06-10T14:47:24.141Z,96396.00
2019-06-10T14:49:53.906Z,96411.00
2019-06-10T14:52:23.785Z,96401.00
2019-06-10T14:54:53.498Z,96407.00
2019-06-10T14:57:23.303Z,96435.00
2019-06-10T14:59:53.356Z,96441.00
2019-06-10T15:02:23.550Z,96444.00
2019-06-10T15:04:53.429Z,96444.00
2019-06-10T15:07:24.110Z,96463.00
2019-06-10T15:09:53.789Z,96460.00
2019-06-10T15:12:24.031Z,96442.00
2019-06-10T15:14:54.147Z,96444.00
2019-06-10T15:17:24.042Z,96443.00
2019-06-10T15:19:53.673Z,96450.00
2019-06-10T15:22:23.744Z,96449.00
2019-06-10T15:24:53.794Z,96441.00
2019-06-10T15:27:30.430Z,96440.00
2019-06-10T15:29:55.117Z,96433.00
2019-06-10T15:32:33.844Z,96425.00
2019-06-10T15:34:56.797Z,96419.00
2019-06-10T15:37:28.967Z,96411.00
2019-06-10T15:39:58.954Z,96413.00
2019-06-10T15:42:29.078Z,96409.00
2019-06-10T15:44:59.202Z,96408.00
2019-06-10T15:47:28.962Z,96417.00
2019-06-10T15:49:59.078Z,96414.00
2019-06-10T15:52:29.085Z,96417.00
2019-06-10T15:54:59.199Z,96427.00
2019-06-10T15:57:39.392Z,96433.00
2019-06-10T16:00:04.200Z,96439.00
2019-06-10T16:02:55.125Z,96427.00
2019-06-10T16:05:25.396Z,96427.00
2019-06-10T16:07:55.728Z,96423.00
2019-06-10T16:10:27.793Z,96444.00
2019-06-10T16:12:57.651Z,96457.00
2019-06-10T16:15:27.686Z,96468.00
2019-06-10T16:17:57.432Z,96461.00
2019-06-10T16:20:28.032Z,96466.00
2019-06-10T16:22:57.910Z,96460.00
2019-06-10T16:25:28.016Z,96463.00
2019-06-10T16:27:58.250Z,96450.00
2019-06-10T16:30:27.898Z,96450.00
2019-06-10T16:32:57.538Z,96460.00
2019-06-10T16:35:27.777Z,96454.00
2019-06-10T16:37:57.775Z,96452.00
2019-06-10T16:40:27.531Z,96441.00
2019-06-10T16:42:57.181Z,96449.00
2019-06-10T16:45:30.628Z,96436.00
2019-06-10T16:47:58.614Z,96444.00
2019-06-10T16:50:29.889Z,96451.00
2019-06-10T16:52:59.701Z,96451.00
2019-06-10T16:55:30.406Z,96452.00
2019-06-10T16:58:02.744Z,96452.00
2019-06-10T17:00:34.897Z,96444.00
2019-06-10T17:03:05.340Z,96440.00
2019-06-10T17:05:34.984Z,96439.00
2019-06-10T17:08:04.994Z,96451.00
2019-06-10T17:10:35.227Z,96460.00
2019-06-10T17:13:07.265Z,96445.00
2019-06-10T17:15:37.627Z,96440.00
2019-06-10T17:18:07.385Z,96451.00
2019-06-10T17:20:37.625Z,96455.00
2019-06-10T17:23:26.357Z,96456.00
2019-06-10T17:25:58.989Z,96455.00
2019-06-10T17:28:33.923Z,96447.00
2019-06-10T17:31:03.465Z,96461.00
2019-06-10T17:33:35.499Z,96462.00
2019-06-10T17:36:03.750Z,96467.00
2019-06-10T17:38:33.788Z,96465.00
2019-06-10T17:41:03.805Z,96465.00
2019-06-10T17:43:34.426Z,96473.00
2019-06-10T17:46:04.280Z,96467.00
2019-06-10T17:48:34.514Z,96449.00
2019-06-10T17:51:04.397Z,96450.00
2019-06-10T17:53:35.134Z,96451.00
2019-06-10T17:56:05.366Z,96447.00
2019-06-10T17:58:49.985Z,96443.00
2019-06-10T18:01:07.045Z,96439.00
2019-06-10T18:03:40.017Z,96440.00
2019-06-10T18:06:13.423Z,96446.00
2019-06-10T18:08:43.528Z,96453.00
2019-06-10T18:11:14.963Z,96458.00
2019-06-10T18:13:45.084Z,96455.00
2019-06-10T18:16:14.961Z,96462.00
2019-06-10T18:18:44.969Z,96458.00
2019-06-10T18:21:15.707Z,96451.00
2019-06-10T18:23:45.804Z,96449.00
2019-06-10T18:26:16.042Z,96450.00
2019-06-10T18:29:00.447Z,96455.00
2019-06-10T18:31:18.608Z,96452.00
2019-06-10T18:33:48.809Z,96463.00
2019-06-10T18:36:18.571Z,96452.00
2019-06-10T18:38:48.573Z,96452.00
2019-06-10T18:41:18.812Z,96450.00
2019-06-10T18:43:50.493Z,96444.00
2019-06-10T18:46:23.058Z,96450.00
2019-06-10T18:48:53.681Z,96484.00
2019-06-10T18:51:23.495Z,96551.00
2019-06-10T18:53:53.760Z,96579.00
2019-06-10T18:56:23.976Z,96574.00
2019-06-10T18:58:53.737Z,96597.00
2019-06-10T19:01:23.374Z,96587.00
2019-06-10T19:04:02.789Z,96605.00
2019-06-10T19:06:33.838Z,96557.00
2019-06-10T19:09:05.623Z,96515.00
2019-06-10T19:11:36.801Z,96519.00
2019-06-10T19:14:07.421Z,96526.00
2019-06-10T19:16:38.502Z,96533.00
2019-06-10T19:19:08.621Z,96529.00
2019-06-10T19:21:38.908Z,96507.00
2019-06-10T19:24:08.623Z,96460.00
2019-06-10T19:26:40.046Z,96382.00
2019-06-10T19:29:09.943Z,96323.00
2019-06-10T19:31:42.010Z,96303.00
2019-06-10T19:34:13.231Z,96310.00
2019-06-10T19:36:43.070Z,96332.00
2019-06-10T19:39:13.321Z,96312.00
2019-06-10T19:41:47.076Z,96309.00
2019-06-10T19:44:14.883Z,96342.00
2019-06-10T19:46:44.627Z,96363.00
2019-06-10T19:49:14.635Z,96346.00
2019-06-10T19:51:46.766Z,96341.00
2019-06-10T19:54:16.322Z,96382.00
2019-06-10T19:56:46.553Z,96379.00
2019-06-10T19:59:16.685Z,96358.00
2019-06-10T20:01:48.599Z,96370.00
2019-06-10T20:04:18.507Z,96390.00
2019-06-10T20:06:50.772Z,96398.00
2019-06-10T20:09:22.434Z,96403.00
2019-06-10T20:11:51.958Z,96404.00
2019-06-10T20:14:21.613Z,96429.00
2019-06-10T20:16:52.718Z,96455.00
2019-06-10T20:19:22.690Z,96474.00
2019-06-10T20:21:52.922Z,96499.00
2019-06-10T20:24:23.160Z,96497.00
2019-06-10T20:26:53.406Z,96484.00
2019-06-10T20:29:23.522Z,96493.00
2019-06-10T20:31:53.765Z,96498.00
2019-06-10T20:34:25.802Z,96483.00
2019-06-10T20:36:55.453Z,96494.00
2019-06-10T20:39:29.143Z,96513.00
2019-06-10T20:41:57.004Z,96518.00
2019-06-10T20:44:26.765Z,96499.00
2019-06-10T20:46:57.009Z,96507.00
2019-06-10T20:49:27.587Z,96507.00
2019-06-10T20:55:51.027Z,96495.00
2019-06-10T20:58:17.055Z,96500.00
2019-06-10T21:00:51.897Z,96503.00
2019-06-10T21:03:18.852Z,96503.00
2019-06-10T21:05:50.296Z,96503.00
2019-06-10T21:08:22.526Z,96480.00
2019-06-10T21:10:54.399Z,96489.00
2019-06-10T21:13:23.059Z,96478.00
2019-06-10T21:15:55.579Z,96483.00
2019-06-10T21:18:25.937Z,96501.00
2019-06-10T21:20:56.398Z,96478.00
2019-06-10T21:23:26.542Z,96498.00
2019-06-10T21:25:56.779Z,96502.00
2019-06-10T21:28:26.663Z,96502.00
2019-06-10T21:30:58.872Z,96501.00
2019-06-10T21:33:28.108Z,96490.00
2019-06-10T21:35:58.221Z,96494.00
2019-06-10T21:38:28.467Z,96491.00
2019-06-10T21:40:58.221Z,96495.00
2019-06-10T21:43:28.228Z,96501.00
2019-06-10T21:45:58.230Z,96515.00
2019-06-10T21:48:28.467Z,96503.00
2019-06-10T21:50:58.229Z,96519.00
2019-06-10T21:53:28.108Z,96519.00
2019-06-10T21:55:57.747Z,96507.00
2019-06-10T21:58:27.869Z,96499.00
2019-06-10T22:01:11.591Z,96495.00
2019-06-10T22:03:32.123Z,96492.00
2019-06-10T22:06:01.350Z,96486.00
2019-06-10T22:08:33.401Z,96476.00
2019-06-10T22:11:03.034Z,96471.00
2019-06-10T22:13:33.283Z,96479.00
2019-06-10T22:16:03.484Z,96474.00
2019-06-10T22:18:33.043Z,96473.00
2019-06-10T22:21:02.981Z,96473.00
2019-06-10T22:23:33.177Z,96470.00
2019-06-10T22:26:03.275Z,96459.00
2019-06-10T22:28:33.397Z,96457.00
2019-06-10T22:31:18.051Z,96451.00
2019-06-10T22:33:34.729Z,96440.00
2019-06-10T22:36:04.837Z,96431.00
2019-06-10T22:38:34.481Z,96434.00
2019-06-10T22:41:04.571Z,96426.00
2019-06-10T22:43:34.360Z,96426.00
2019-06-10T22:46:04.485Z,96424.00
2019-06-10T22:48:34.696Z,96423.00
2019-06-10T22:51:04.963Z,96437.00
2019-06-10T22:53:35.324Z,96436.00
2019-06-10T22:56:05.083Z,96440.00
2019-06-10T22:58:35.085Z,96443.00
2019-06-10T23:01:05.091Z,96446.00
2019-06-10T23:03:34.982Z,96440.00
2019-06-10T23:06:04.612Z,96429.00
2019-06-10T23:08:34.605Z,96416.00
2019-06-10T23:11:04.557Z,96422.00
2019-06-10T23:13:34.848Z,96418.00
2019-06-10T23:16:05.094Z,96413.00
2019-06-10T23:18:35.341Z,96426.00
2019-06-10T23:21:05.482Z,96408.00
2019-06-10T23:23:35.573Z,96412.00
2019-06-10T23:26:05.334Z,96411.00
2019-06-10T23:28:35.706Z,96407.00
2019-06-10T23:31:05.717Z,96406.00
2019-06-10T23:33:35.935Z,96401.00
2019-06-10T23:36:05.699Z,96402.00
2019-06-10T23:38:35.455Z,96403.00
2019-06-10T23:41:05.579Z,96401.00
2019-06-10T23:43:35.580Z,96394.00
2019-06-10T23:46:05.340Z,96389.00
2019-06-10T23:48:35.108Z,96386.00
2019-06-10T23:51:05.463Z,96388.00
2019-06-10T23:53:35.463Z,96384.00
2019-06-10T23:56:05.716Z,96380.00
2019-06-10T23:58:35.708Z,96374.00
